createdAt,value
2023-02-24T00:02:06.110Z,100098.29
2023-02-24T00:04:39.666Z,100100.20
2023-02-24T00:07:10.588Z,100099.99
2023-02-24T00:09:39.417Z,100097.20
2023-02-24T00:12:11.502Z,100093.33
2023-02-24T00:14:42.573Z,100091.38
2023-02-24T00:17:14.517Z,100095.73
2023-02-24T00:19:43.141Z,100094.86
2023-02-24T00:22:11.408Z,100093.33
2023-02-24T00:24:40.238Z,100089.45
2023-02-24T00:27:08.326Z,100087.39
2023-02-24T00:29:41.810Z,100086.59
2023-02-24T00:32:13.179Z,100080.81
2023-02-24T00:34:42.111Z,100075.42
2023-02-24T00:37:10.052Z,100073.20
2023-02-24T00:39:41.952Z,100071.61
2023-02-24T00:42:11.832Z,100071.59
2023-02-24T00:44:44.225Z,100066.96
2023-02-24T00:47:13.740Z,100070.19
2023-02-24T00:49:43.402Z,100066.88
2023-02-24T00:52:18.349Z,100062.04
2023-02-24T00:54:48.797Z,100063.67
2023-02-24T00:57:18.735Z,100061.42
2023-02-24T00:59:51.820Z,100061.71
2023-02-24T01:02:21.495Z,100061.98
2023-02-24T01:04:51.135Z,100058.92
2023-02-24T01:07:19.040Z,100055.45
2023-02-24T01:09:50.248Z,100055.79
2023-02-24T01:12:38.272Z,100056.91
2023-02-24T01:15:09.244Z,100054.63
2023-02-24T01:17:38.031Z,100051.95
2023-02-24T01:20:19.026Z,100045.12
2023-02-24T01:22:50.243Z,100044.81
2023-02-24T01:25:20.533Z,100040.95
2023-02-24T01:27:49.091Z,100037.70
2023-02-24T01:30:18.598Z,100034.55
2023-02-24T01:32:47.926Z,100033.48
2023-02-24T01:35:16.484Z,100035.05
2023-02-24T01:37:45.826Z,100034.20
2023-02-24T01:40:20.885Z,100032.04
2023-02-24T01:42:49.627Z,100028.88
2023-02-24T01:45:25.113Z,100023.08
2023-02-24T01:47:55.089Z,100023.73
2023-02-24T01:50:26.320Z,100021.64
2023-02-24T01:53:00.682Z,100019.73
2023-02-24T01:55:33.618Z,100022.27
2023-02-24T01:58:09.481Z,100023.79
2023-02-24T02:00:45.686Z,100025.03
2023-02-24T02:03:27.001Z,100020.30
2023-02-24T02:06:01.188Z,100020.06
2023-02-24T02:08:30.185Z,100020.33
2023-02-24T02:11:04.814Z,100019.71
2023-02-24T02:13:38.246Z,100016.98
2023-02-24T02:16:52.262Z,100019.15
2023-02-24T02:19:46.016Z,100017.27
2023-02-24T02:22:39.042Z,100014.50
2023-02-24T02:25:33.811Z,100012.64
2023-02-24T02:28:34.740Z,100007.53
2023-02-24T02:31:41.471Z,100007.11
2023-02-24T02:34:20.055Z,100007.60
2023-02-24T02:37:01.811Z,100010.51
2023-02-24T02:39:43.538Z,100014.17
2023-02-24T02:42:30.285Z,100016.92
2023-02-24T02:45:24.678Z,100015.08
2023-02-24T02:48:03.243Z,100014.45
2023-02-24T02:50:48.826Z,100013.98
2023-02-24T02:53:28.767Z,100011.61
2023-02-24T02:56:20.430Z,100010.21
2023-02-24T02:58:53.973Z,100009.14
2023-02-24T03:01:28.393Z,100010.86
2023-02-24T03:04:04.818Z,100011.33
2023-02-24T03:06:53.814Z,100006.39
2023-02-24T03:09:30.752Z,100000.77
2023-02-24T03:12:08.412Z,100002.53
2023-02-24T03:14:41.277Z,100001.30
2023-02-24T03:17:16.283Z,99999.13
2023-02-24T03:19:46.745Z,100000.67
2023-02-24T03:22:22.596Z,100002.41
2023-02-24T03:24:52.974Z,99999.56
2023-02-24T03:27:38.192Z,99997.51
2023-02-24T03:30:16.068Z,99999.08
2023-02-24T03:33:01.298Z,99998.23
2023-02-24T03:35:34.416Z,99993.01
2023-02-24T03:38:04.294Z,99995.25
2023-02-24T03:40:36.276Z,99993.16
2023-02-24T03:43:30.275Z,99989.79
2023-02-24T03:46:01.374Z,99985.72
2023-02-24T03:48:33.058Z,99984.41
2023-02-24T03:51:00.987Z,99982.85
2023-02-24T03:54:09.026Z,99976.61
2023-02-24T03:57:12.551Z,99973.33
2023-02-24T03:59:57.508Z,99969.70
2023-02-24T04:02:30.216Z,99966.70
2023-02-24T04:05:05.973Z,99964.60
2023-02-24T04:08:02.985Z,99958.14
2023-02-24T04:10:52.654Z,99957.38
2023-02-24T04:13:35.981Z,99954.59
2023-02-24T04:16:17.044Z,99950.60
2023-02-24T04:18:50.608Z,99945.92
2023-02-24T04:21:22.962Z,99942.99
2023-02-24T04:23:51.226Z,99943.00
2023-02-24T04:26:20.785Z,99943.28
2023-02-24T04:28:48.737Z,99937.65
2023-02-24T04:31:20.494Z,99935.10
2023-02-24T04:33:53.364Z,99940.05
2023-02-24T04:36:26.199Z,99937.81
2023-02-24T04:38:54.569Z,99927.80
2023-02-24T04:41:23.290Z,99917.42
2023-02-24T04:43:51.714Z,99910.19
2023-02-24T04:46:20.106Z,99907.80
2023-02-24T04:48:48.190Z,99900.78
2023-02-24T04:51:16.259Z,99898.52
2023-02-24T04:53:44.226Z,99900.93
2023-02-24T04:56:12.129Z,99898.86
2023-02-24T04:58:41.335Z,99897.41
2023-02-24T05:01:11.289Z,99896.80
2023-02-24T05:03:42.672Z,99894.13
2023-02-24T05:06:16.679Z,99892.35
2023-02-24T05:08:45.187Z,99895.44
2023-02-24T05:11:16.285Z,99894.80
2023-02-24T05:13:48.168Z,99894.10
2023-02-24T05:16:20.469Z,99891.02
2023-02-24T05:18:48.556Z,99891.87
2023-02-24T05:21:36.075Z,99892.14
2023-02-24T05:24:07.300Z,99895.47
2023-02-24T05:26:37.385Z,99901.16
2023-02-24T05:29:06.778Z,99901.36
2023-02-24T05:31:37.237Z,99899.39
2023-02-24T05:34:07.796Z,99898.24
2023-02-24T05:36:40.572Z,99896.08
2023-02-24T05:39:14.653Z,99893.40
2023-02-24T05:41:43.390Z,99893.41
2023-02-24T05:44:15.772Z,99894.25
2023-02-24T05:46:46.053Z,99894.45
2023-02-24T05:49:24.185Z,99892.14
2023-02-24T05:51:55.621Z,99888.79
2023-02-24T05:54:30.323Z,99889.70
2023-02-24T05:57:09.346Z,99887.48
2023-02-24T05:59:39.655Z,99886.02
2023-02-24T06:02:14.263Z,99884.36
2023-02-24T06:04:54.226Z,99885.28
2023-02-24T06:07:29.011Z,99888.92
2023-02-24T06:09:58.966Z,99883.55
2023-02-24T06:12:35.820Z,99880.30
2023-02-24T06:15:16.439Z,99875.34
2023-02-24T06:17:50.540Z,99876.73
2023-02-24T06:20:18.679Z,99875.08
2023-02-24T06:22:46.950Z,99872.73
2023-02-24T06:25:14.937Z,99869.49
2023-02-24T06:27:43.248Z,99867.84
2023-02-24T06:30:12.332Z,99866.41
2023-02-24T06:32:42.008Z,99863.34
2023-02-24T06:35:12.710Z,99863.45
2023-02-24T06:37:41.327Z,99863.05
2023-02-24T06:40:16.163Z,99862.36
2023-02-24T06:42:49.032Z,99863.57
2023-02-24T06:45:18.236Z,99862.27
2023-02-24T06:47:48.932Z,99859.52
2023-02-24T06:50:21.769Z,99855.95
2023-02-24T06:52:50.554Z,99853.34
2023-02-24T06:55:27.645Z,99853.54
2023-02-24T06:58:04.474Z,99852.55
2023-02-24T07:00:41.648Z,99855.15
2023-02-24T07:03:15.170Z,99858.29
2023-02-24T07:05:50.524Z,99857.05
2023-02-24T07:08:22.836Z,99851.59
2023-02-24T07:10:59.888Z,99851.93
2023-02-24T07:13:30.949Z,99850.81
2023-02-24T07:16:07.236Z,99846.64
2023-02-24T07:18:37.225Z,99847.67
2023-02-24T07:21:05.496Z,99846.41
2023-02-24T07:23:33.411Z,99844.79
2023-02-24T07:26:10.331Z,99840.89
2023-02-24T07:28:43.290Z,99840.87
2023-02-24T07:31:13.604Z,99839.10
2023-02-24T07:33:45.247Z,99838.71
2023-02-24T07:36:15.621Z,99831.56
2023-02-24T07:38:45.146Z,99832.06
2023-02-24T07:41:15.438Z,99825.58
2023-02-24T07:43:44.157Z,99822.55
2023-02-24T07:46:19.720Z,99820.40
2023-02-24T07:48:47.587Z,99822.81
2023-02-24T07:51:19.607Z,99826.55
2023-02-24T07:53:52.294Z,99824.59
2023-02-24T07:56:27.061Z,99823.13
2023-02-24T07:59:02.098Z,99822.14
2023-02-24T08:01:38.964Z,99820.05
2023-02-24T08:04:08.715Z,99816.48
2023-02-24T08:06:46.152Z,99815.30
2023-02-24T08:09:21.023Z,99812.62
2023-02-24T08:11:54.571Z,99811.18
2023-02-24T08:14:32.905Z,99808.30
2023-02-24T08:17:05.451Z,99805.30
2023-02-24T08:19:40.004Z,99803.86
2023-02-24T08:22:20.943Z,99797.89
2023-02-24T08:25:00.784Z,99792.86
2023-02-24T08:27:30.439Z,99789.60
2023-02-24T08:30:00.136Z,99789.28
2023-02-24T08:32:43.797Z,99787.83
2023-02-24T08:35:18.656Z,99786.86
2023-02-24T08:37:50.128Z,99781.77
2023-02-24T08:40:34.476Z,99779.17
2023-02-24T08:43:19.305Z,99782.01
2023-02-24T08:45:51.914Z,99785.91
2023-02-24T08:48:38.346Z,99780.05
2023-02-24T08:51:23.165Z,99780.04
2023-02-24T08:53:53.609Z,99780.08
2023-02-24T08:56:24.914Z,99776.47
2023-02-24T08:58:58.474Z,99777.65
2023-02-24T09:01:34.714Z,99772.43
2023-02-24T09:04:19.060Z,99769.55
2023-02-24T09:06:53.838Z,99765.88
2023-02-24T09:09:24.837Z,99765.81
2023-02-24T09:12:00.228Z,99757.55
2023-02-24T09:14:36.630Z,99757.02
2023-02-24T09:17:11.544Z,99755.98
2023-02-24T09:19:51.955Z,99751.68
2023-02-24T09:22:32.174Z,99749.27
2023-02-24T09:25:18.054Z,99744.95
2023-02-24T09:28:08.018Z,99744.27
2023-02-24T09:30:51.509Z,99744.19
2023-02-24T09:33:41.965Z,99741.23
2023-02-24T09:36:27.868Z,99738.91
2023-02-24T09:39:01.621Z,99738.96
2023-02-24T09:41:55.383Z,99741.77
2023-02-24T09:44:28.650Z,99741.47
2023-02-24T09:47:14.125Z,99736.55
2023-02-24T09:49:48.033Z,99729.77
2023-02-24T09:52:18.489Z,99726.17
2023-02-24T09:55:15.584Z,99724.33
2023-02-24T09:58:17.152Z,99718.85
2023-02-24T10:01:21.099Z,99712.85
2023-02-24T10:04:14.951Z,99705.02
2023-02-24T10:06:58.994Z,99701.88
2023-02-24T10:09:36.139Z,99696.48
2023-02-24T10:12:17.482Z,99685.09
2023-02-24T10:15:20.580Z,99681.36
2023-02-24T10:17:55.506Z,99673.13
2023-02-24T10:20:44.723Z,99661.75
2023-02-24T10:23:56.804Z,99656.71
2023-02-24T10:27:25.201Z,99647.54
2023-02-24T10:30:11.228Z,99644.80
2023-02-24T10:33:05.520Z,99646.77
2023-02-24T10:35:34.187Z,99638.25
2023-02-24T10:38:06.600Z,99636.34
2023-02-24T10:40:47.041Z,99633.92
2023-02-24T10:43:30.136Z,99626.55
2023-02-24T10:46:06.883Z,99627.12
2023-02-24T10:48:42.420Z,99622.40
2023-02-24T10:51:20.709Z,99612.98
2023-02-24T10:54:10.226Z,99611.29
2023-02-24T10:56:55.366Z,99603.30
2023-02-24T10:59:48.484Z,99603.58
2023-02-24T11:02:29.933Z,99596.80
2023-02-24T11:05:25.110Z,99588.42
2023-02-24T11:08:08.115Z,99584.19
2023-02-24T11:10:53.268Z,99577.52
2023-02-24T11:13:56.888Z,99573.63
2023-02-24T11:16:51.596Z,99568.70
2023-02-24T11:19:21.379Z,99567.16
2023-02-24T11:21:49.518Z,99561.44
2023-02-24T11:24:19.379Z,99558.33
2023-02-24T11:26:48.400Z,99562.48
2023-02-24T11:29:44.357Z,99559.04
2023-02-24T11:32:30.456Z,99556.21
2023-02-24T11:35:09.495Z,99549.84
2023-02-24T11:37:57.573Z,99545.90
2023-02-24T11:40:28.592Z,99544.61
2023-02-24T11:43:10.522Z,99537.54
2023-02-24T11:45:43.575Z,99529.98
2023-02-24T11:48:30.952Z,99526.81
2023-02-24T11:51:06.025Z,99524.34
2023-02-24T11:53:41.269Z,99517.65
2023-02-24T11:56:28.220Z,99512.98
2023-02-24T11:59:07.085Z,99506.19
2023-02-24T12:01:59.409Z,99501.13
2023-02-24T12:04:37.464Z,99499.38
2023-02-24T12:07:14.292Z,99495.47
2023-02-24T12:09:50.364Z,99495.20
2023-02-24T12:12:44.064Z,99490.13
2023-02-24T12:15:27.293Z,99485.34
2023-02-24T12:18:05.603Z,99479.20
2023-02-24T12:20:43.262Z,99476.14
2023-02-24T12:23:26.867Z,99470.02
2023-02-24T12:26:08.900Z,99467.81
2023-02-24T12:29:03.857Z,99455.22
2023-02-24T12:31:35.131Z,99451.84
2023-02-24T12:34:08.730Z,99446.64
2023-02-24T12:37:17.679Z,99444.29
2023-02-24T12:40:16.328Z,99437.79
2023-02-24T12:43:25.399Z,99436.55
2023-02-24T12:46:05.709Z,99432.66
2023-02-24T12:48:55.487Z,99434.38
2023-02-24T12:51:26.320Z,99427.39
2023-02-24T12:53:57.673Z,99428.63
2023-02-24T12:56:45.673Z,99425.73
2023-02-24T12:59:19.010Z,99424.47
2023-02-24T13:02:04.657Z,99425.19
2023-02-24T13:04:51.619Z,99414.42
2023-02-24T13:07:37.093Z,99408.76
2023-02-24T13:10:41.951Z,99409.88
2023-02-24T13:13:20.608Z,99408.18
2023-02-24T13:16:02.346Z,99406.27
2023-02-24T13:18:36.711Z,99402.45
2023-02-24T13:21:20.010Z,99398.43
2023-02-24T13:24:01.203Z,99398.06
2023-02-24T13:26:32.340Z,99392.05
2023-02-24T13:29:12.091Z,99386.66
2023-02-24T13:31:52.828Z,99382.90
2023-02-24T13:34:33.982Z,99381.13
2023-02-24T13:37:01.914Z,99377.56
2023-02-24T13:39:34.647Z,99377.37
2023-02-24T13:42:17.865Z,99371.94
2023-02-24T13:44:54.081Z,99368.67
2023-02-24T13:47:52.906Z,99361.21
2023-02-24T13:50:32.230Z,99363.89
2023-02-24T13:53:08.846Z,99364.81
2023-02-24T13:55:55.441Z,99363.88
2023-02-24T13:58:42.333Z,99359.73
2023-02-24T14:01:14.188Z,99353.89
2023-02-24T14:03:46.867Z,99353.90
2023-02-24T14:06:25.349Z,99355.52
2023-02-24T14:08:57.732Z,99352.86
2023-02-24T14:11:33.933Z,99353.72
2023-02-24T14:14:02.678Z,99353.48
2023-02-24T14:16:38.569Z,99348.20
2023-02-24T14:19:16.280Z,99348.41
2023-02-24T14:21:54.057Z,99346.86
2023-02-24T14:24:23.325Z,99341.69
2023-02-24T14:26:54.598Z,99341.36
2023-02-24T14:29:26.375Z,99332.45
2023-02-24T14:31:56.322Z,99323.61
2023-02-24T14:34:26.880Z,99322.13
2023-02-24T14:36:58.113Z,99318.58
2023-02-24T14:39:29.570Z,99315.34
2023-02-24T14:42:12.366Z,99312.75
2023-02-24T14:44:47.319Z,99314.41
2023-02-24T14:47:18.107Z,99313.23
2023-02-24T14:49:56.869Z,99311.79
2023-02-24T14:52:48.305Z,99308.61
2023-02-24T14:55:22.704Z,99309.22
2023-02-24T14:57:56.716Z,99307.25
2023-02-24T15:00:36.434Z,99304.55
2023-02-24T15:03:04.224Z,99304.40
2023-02-24T15:05:32.805Z,99304.02
2023-02-24T15:08:02.544Z,99303.09
2023-02-24T15:10:31.293Z,99301.05
2023-02-24T15:13:18.367Z,99296.42
2023-02-24T15:15:49.010Z,99289.27
2023-02-24T15:18:28.873Z,99288.52
2023-02-24T15:21:06.340Z,99283.30
2023-02-24T15:23:38.549Z,99282.51
2023-02-24T15:26:08.889Z,99277.80
2023-02-24T15:28:37.997Z,99277.69
2023-02-24T15:31:21.540Z,99279.96
2023-02-24T15:34:00.371Z,99283.92
2023-02-24T15:36:36.101Z,99279.67
2023-02-24T15:39:09.049Z,99272.06
2023-02-24T15:41:46.712Z,99270.06
2023-02-24T15:44:50.790Z,99268.75
2023-02-24T15:47:32.718Z,99263.49
2023-02-24T15:50:00.718Z,99258.98
2023-02-24T15:52:30.060Z,99253.23
2023-02-24T15:55:02.439Z,99258.32
2023-02-24T15:57:32.604Z,99257.19
2023-02-24T16:00:00.545Z,99256.44
2023-02-24T16:02:29.818Z,99251.49
2023-02-24T16:04:57.954Z,99248.27
2023-02-24T16:07:30.930Z,99245.27
2023-02-24T16:10:00.626Z,99247.21
2023-02-24T16:12:35.983Z,99242.03
2023-02-24T16:15:06.882Z,99242.48
2023-02-24T16:17:37.719Z,99235.34
2023-02-24T16:20:11.592Z,99232.49
2023-02-24T16:22:42.116Z,99234.09
2023-02-24T16:25:14.644Z,99228.63
2023-02-24T16:27:43.040Z,99221.35
2023-02-24T16:30:18.424Z,99223.02
2023-02-24T16:32:47.623Z,99218.11
2023-02-24T16:35:16.030Z,99216.08
2023-02-24T16:37:47.221Z,99214.71
2023-02-24T16:40:30.925Z,99210.81
2023-02-24T16:42:59.411Z,99204.73
2023-02-24T16:45:29.737Z,99206.41
2023-02-24T16:48:02.201Z,99204.65
2023-02-24T16:50:38.910Z,99207.58
2023-02-24T16:53:15.332Z,99204.42
2023-02-24T16:55:43.398Z,99207.20
2023-02-24T16:58:12.237Z,99205.62
2023-02-24T17:00:42.368Z,99202.83
2023-02-24T17:03:23.416Z,99195.16
2023-02-24T17:05:51.697Z,99197.01
2023-02-24T17:08:19.818Z,99197.38
2023-02-24T17:10:49.490Z,99191.64
2023-02-24T17:13:21.356Z,99190.36
2023-02-24T17:15:57.045Z,99187.86
2023-02-24T17:18:26.124Z,99183.19
2023-02-24T17:20:54.314Z,99184.05
2023-02-24T17:23:22.699Z,99177.38
2023-02-24T17:25:55.020Z,99176.23
2023-02-24T17:28:23.393Z,99177.30
2023-02-24T17:30:51.864Z,99173.46
2023-02-24T17:33:19.842Z,99173.55
2023-02-24T17:35:48.059Z,99171.09
2023-02-24T17:38:19.810Z,99167.23
2023-02-24T17:40:47.981Z,99169.19
2023-02-24T17:43:16.150Z,99168.20
2023-02-24T17:45:46.282Z,99159.82
2023-02-24T17:48:15.737Z,99155.98
2023-02-24T17:50:45.315Z,99152.41
2023-02-24T17:53:13.837Z,99151.10
2023-02-24T17:55:55.811Z,99150.96
2023-02-24T17:58:28.111Z,99143.64
2023-02-24T18:00:56.174Z,99134.84
2023-02-24T18:03:24.733Z,99137.72
2023-02-24T18:06:03.409Z,99132.83
2023-02-24T18:08:33.320Z,99136.25
2023-02-24T18:11:01.541Z,99130.40
2023-02-24T18:13:31.251Z,99125.59
2023-02-24T18:16:09.092Z,99124.14
2023-02-24T18:18:37.336Z,99119.14
2023-02-24T18:21:05.962Z,99119.03
2023-02-24T18:23:34.704Z,99116.30
2023-02-24T18:26:10.721Z,99116.53
2023-02-24T18:28:39.621Z,99118.63
2023-02-24T18:31:17.448Z,99114.87
2023-02-24T18:33:45.675Z,99109.32
2023-02-24T18:36:14.024Z,99105.48
2023-02-24T18:38:42.449Z,99099.13
2023-02-24T18:41:15.570Z,99099.00
2023-02-24T18:43:44.679Z,99100.38
2023-02-24T18:46:17.147Z,99101.40
2023-02-24T18:48:46.598Z,99097.67
2023-02-24T18:51:17.450Z,99096.83
2023-02-24T18:53:45.761Z,99095.71
2023-02-24T18:56:19.047Z,99097.85
2023-02-24T18:58:49.460Z,99096.67
2023-02-24T19:01:20.370Z,99090.02
2023-02-24T19:03:49.297Z,99089.53
2023-02-24T19:06:19.426Z,99085.11
2023-02-24T19:08:49.714Z,99078.34
2023-02-24T19:11:20.117Z,99082.84
2023-02-24T19:13:48.408Z,99077.39
2023-02-24T19:16:17.896Z,99074.69
2023-02-24T19:18:50.166Z,99072.95
2023-02-24T19:21:18.367Z,99070.79
2023-02-24T19:23:46.804Z,99066.17
2023-02-24T19:26:21.279Z,99061.64
2023-02-24T19:28:50.184Z,99057.94
2023-02-24T19:31:24.511Z,99051.91
2023-02-24T19:33:55.538Z,99048.34
2023-02-24T19:36:24.195Z,99043.71
2023-02-24T19:38:53.412Z,99040.94
2023-02-24T19:41:24.774Z,99041.09
2023-02-24T19:43:53.198Z,99039.38
2023-02-24T19:46:22.033Z,99038.48
2023-02-24T19:48:50.255Z,99034.08
2023-02-24T19:51:21.948Z,99033.56
2023-02-24T19:53:55.821Z,99029.83
2023-02-24T19:56:25.012Z,99024.79
2023-02-24T19:58:54.921Z,99019.72
2023-02-24T20:01:23.902Z,99022.08
2023-02-24T20:03:54.738Z,99023.34
2023-02-24T20:06:26.191Z,99027.12
2023-02-24T20:08:54.848Z,99025.73
2023-02-24T20:11:24.487Z,99020.48
2023-02-24T20:13:53.934Z,99019.13
2023-02-24T20:16:27.003Z,99018.30
2023-02-24T20:18:55.626Z,99015.97
2023-02-24T20:21:24.563Z,99017.09
2023-02-24T20:23:52.618Z,99014.22
2023-02-24T20:26:21.236Z,99011.38
2023-02-24T20:28:49.690Z,99009.82
2023-02-24T20:31:22.395Z,99009.79
2023-02-24T20:33:51.290Z,99008.95
2023-02-24T20:36:23.056Z,98995.41
2023-02-24T20:38:52.137Z,98987.37
2023-02-24T20:41:21.726Z,98979.98
2023-02-24T20:43:50.018Z,98976.10
2023-02-24T20:46:25.209Z,98968.92
2023-02-24T20:48:57.164Z,98959.88
2023-02-24T20:51:26.306Z,98953.23
2023-02-24T20:53:58.158Z,98951.45
2023-02-24T20:56:29.367Z,98978.11
2023-02-24T20:59:02.332Z,98978.91
2023-02-24T21:01:31.806Z,98963.94
2023-02-24T21:04:00.711Z,98954.88
2023-02-24T21:06:29.680Z,98962.81
2023-02-24T21:08:59.012Z,98949.73
2023-02-24T21:11:27.477Z,98939.77
2023-02-24T21:13:55.818Z,98937.58
2023-02-24T21:16:25.383Z,98937.32
2023-02-24T21:18:55.934Z,98935.11
2023-02-24T21:21:24.980Z,98929.91
2023-02-24T21:23:52.974Z,98924.72
2023-02-24T21:26:21.101Z,98921.55
2023-02-24T21:28:56.877Z,98918.11
2023-02-24T21:31:26.193Z,98912.05
2023-02-24T21:33:55.740Z,98909.33
2023-02-24T21:36:27.011Z,98909.77
2023-02-24T21:38:55.557Z,98919.88
2023-02-24T21:41:24.082Z,98935.52
2023-02-24T21:43:55.198Z,98944.15
2023-02-24T21:46:27.997Z,98953.08
2023-02-24T21:49:00.432Z,98947.36
2023-02-24T21:51:29.410Z,98949.27
2023-02-24T21:53:58.094Z,98956.47
2023-02-24T21:56:29.052Z,98961.52
2023-02-24T21:59:00.244Z,98963.45
2023-02-24T22:01:30.023Z,98955.52
2023-02-24T22:04:00.456Z,98963.77
2023-02-24T22:06:32.335Z,98959.14
2023-02-24T22:09:01.962Z,98970.08
2023-02-24T22:11:35.272Z,98954.36
2023-02-24T22:14:06.076Z,98932.02
2023-02-24T22:16:34.020Z,98926.37
2023-02-24T22:19:04.469Z,98927.39
2023-02-24T22:21:33.215Z,98920.94
2023-02-24T22:24:09.580Z,98919.54
2023-02-24T22:26:38.428Z,98922.92
2023-02-24T22:29:09.019Z,98924.83
2023-02-24T22:31:39.266Z,98921.77
2023-02-24T22:34:08.931Z,98916.27
2023-02-24T22:36:38.087Z,98922.04
2023-02-24T22:39:10.967Z,98921.55
2023-02-24T22:41:42.709Z,98918.77
2023-02-24T22:44:13.284Z,98911.05
2023-02-24T22:46:41.297Z,98907.72
2023-02-24T22:49:09.274Z,98906.10
2023-02-24T22:51:37.225Z,98896.39
2023-02-24T22:54:06.126Z,98891.36
2023-02-24T22:56:34.597Z,98887.11
2023-02-24T22:59:02.401Z,98875.98
2023-02-24T23:01:33.879Z,98872.23
2023-02-24T23:04:12.799Z,98870.89
2023-02-24T23:06:41.697Z,98864.86
2023-02-24T23:09:10.105Z,98861.05
2023-02-24T23:11:43.929Z,98854.14
2023-02-24T23:14:13.971Z,98849.67
2023-02-24T23:16:44.711Z,98847.00
2023-02-24T23:19:16.708Z,98842.04
2023-02-24T23:21:50.764Z,98837.49
2023-02-24T23:24:20.405Z,98834.75
2023-02-24T23:26:54.003Z,98830.90
2023-02-24T23:29:23.473Z,98824.05
2023-02-24T23:31:52.806Z,98813.86
2023-02-24T23:34:21.104Z,98810.06
2023-02-24T23:36:49.040Z,98809.02
2023-02-24T23:39:23.324Z,98808.11
2023-02-24T23:41:56.845Z,98802.23
2023-02-24T23:44:25.198Z,98799.59
2023-02-24T23:46:54.726Z,98795.71
2023-02-24T23:49:24.181Z,98796.39
2023-02-24T23:51:52.115Z,98797.09
2023-02-24T23:54:20.813Z,98803.08
2023-02-24T23:56:48.777Z,98793.07
2023-02-24T23:59:16.877Z,98798.33
